Time;durP1;ratioP1;P1;durP2;ratioP2;P2;SDS_P1;SDS_P2;PMS_P1;PMS_P2;Temp;Humidity;BMP_temperature;BMP_pressure;BME280_temperature;BME280_humidity;BME280_pressure;Samples;Min_cycle;Max_cycle;Signal;HPM_P1;HPM_P2
2022/04/13 00:00:45;;;;;;;17.13;7.63;;;10.00;57.10;;;;;;5095406;23;20248;-81
2022/04/13 00:02:48;;;;;;;15.73;7.70;;;9.90;57.40;;;;;;5095130;23;20208;-80
2022/04/13 00:04:51;;;;;;;16.30;8.00;;;9.90;57.70;;;;;;5095310;23;20574;-80
2022/04/13 00:06:53;;;;;;;16.10;7.60;;;9.90;58.00;;;;;;5094424;23;20235;-80
2022/04/13 00:08:55;;;;;;;14.03;7.53;;;9.80;58.00;;;;;;5094788;23;20207;-80
2022/04/13 00:10:57;;;;;;;16.13;7.60;;;9.80;58.70;;;;;;5094465;23;20267;-80
2022/04/13 00:12:59;;;;;;;17.17;7.43;;;9.80;58.90;;;;;;5093847;23;20255;-82
2022/04/13 00:15:02;;;;;;;16.37;7.80;;;9.70;58.80;;;;;;5096693;23;20183;-82
2022/04/13 00:17:04;;;;;;;14.43;7.47;;;9.70;59.40;;;;;;5095297;23;20203;-81
2022/04/13 00:19:07;;;;;;;15.57;7.47;;;9.70;59.40;;;;;;5095457;23;20499;-82
2022/04/13 00:21:10;;;;;;;15.23;7.57;;;10.10;59.50;;;;;;5095308;23;20191;-82
2022/04/13 00:23:12;;;;;;;15.17;7.30;;;9.70;59.70;;;;;;5096485;23;20238;-81
2022/04/13 00:25:14;;;;;;;17.00;8.13;;;9.60;60.10;;;;;;5094768;23;20194;-82
2022/04/13 00:27:16;;;;;;;16.40;8.07;;;9.70;60.60;;;;;;5094268;23;20529;-81
2022/04/13 00:29:18;;;;;;;16.90;7.40;;;9.60;61.10;;;;;;5095701;23;20515;-81
2022/04/13 00:31:20;;;;;;;15.17;7.63;;;9.50;61.50;;;;;;5095679;23;20212;-82
2022/04/13 00:33:22;;;;;;;15.80;7.83;;;9.60;61.30;;;;;;5093844;23;20239;-81
2022/04/13 00:35:24;;;;;;;15.43;7.60;;;9.50;61.50;;;;;;5095329;23;20246;-82
2022/04/13 00:37:27;;;;;;;15.83;8.17;;;9.50;62.00;;;;;;5095261;23;20192;-82
2022/04/13 00:39:29;;;;;;;16.73;8.33;;;9.40;62.50;;;;;;5095597;23;20419;-81
2022/04/13 00:41:31;;;;;;;16.43;7.83;;;9.40;62.90;;;;;;5094502;23;20443;-82
2022/04/13 00:43:33;;;;;;;16.30;7.77;;;9.40;63.30;;;;;;5095602;23;20485;-81
2022/04/13 00:45:35;;;;;;;17.03;7.70;;;9.40;63.60;;;;;;5095050;23;20400;-81
2022/04/13 00:47:40;;;;;;;15.13;7.37;;;9.30;63.60;;;;;;5095211;23;20416;-81
2022/04/13 00:49:42;;;;;;;18.17;8.67;;;9.30;64.20;;;;;;5096629;23;20439;-81
2022/04/13 00:51:43;;;;;;;17.77;8.17;;;9.30;64.70;;;;;;5101461;23;20458;-81
2022/04/13 00:53:48;;;;;;;15.77;7.93;;;9.30;64.40;;;;;;5100748;23;20807;-81
2022/04/13 00:55:54;;;;;;;16.13;7.40;;;9.20;64.70;;;;;;5101908;23;20728;-81
2022/04/13 00:57:59;;;;;;;15.90;7.90;;;9.20;64.90;;;;;;5101931;23;20404;-81
2022/04/13 01:00:03;;;;;;;17.73;8.47;;;9.20;64.80;;;;;;5109603;23;20404;-80
2022/04/13 01:02:07;;;;;;;18.87;8.60;;;9.20;65.00;;;;;;5109620;23;20523;-80
2022/04/13 01:04:12;;;;;;;16.33;7.90;;;9.20;65.20;;;;;;5102206;23;20406;-80
2022/04/13 01:06:15;;;;;;;13.60;7.53;;;9.30;66.40;;;;;;5109631;23;20431;-81
2022/04/13 01:08:18;;;;;;;16.10;7.97;;;9.10;66.10;;;;;;5110113;23;20447;-80
2022/04/13 01:10:21;;;;;;;17.27;8.03;;;9.10;66.90;;;;;;5110357;23;20423;-80
2022/04/13 01:12:23;;;;;;;14.67;7.60;;;9.00;67.30;;;;;;5110027;23;20470;-81
2022/04/13 01:14:24;;;;;;;15.73;7.60;;;9.00;68.00;;;;;;5109858;23;20770;-80
2022/04/13 01:16:27;;;;;;;20.43;8.33;;;9.00;68.40;;;;;;5111605;23;20443;-80
2022/04/13 01:18:29;;;;;;;16.37;7.20;;;9.00;68.50;;;;;;5106356;23;20416;-80
2022/04/13 01:20:30;;;;;;;16.20;7.60;;;9.00;68.60;;;;;;5106034;23;20454;-80
2022/04/13 01:22:34;;;;;;;16.27;7.87;;;8.90;69.70;;;;;;5104850;23;20495;-80
2022/04/13 01:24:35;;;;;;;18.23;7.67;;;8.90;70.10;;;;;;5101684;23;20402;-79
2022/04/13 01:26:37;;;;;;;16.90;7.67;;;8.90;71.10;;;;;;5104544;23;20950;-81
2022/04/13 01:28:39;;;;;;;15.83;7.50;;;8.80;71.40;;;;;;5102791;23;21123;-80
2022/04/13 01:30:41;;;;;;;21.07;8.57;;;9.80;72.60;;;;;;5104639;23;20481;-81
2022/04/13 01:32:43;;;;;;;15.83;7.53;;;8.80;72.30;;;;;;5106076;23;20435;-80
2022/04/13 01:34:48;;;;;;;14.23;7.47;;;8.80;72.80;;;;;;5107742;23;20411;-80
2022/04/13 01:36:50;;;;;;;18.80;7.90;;;8.80;73.60;;;;;;5113209;23;20415;-80
2022/04/13 01:38:53;;;;;;;21.17;7.47;;;8.70;74.50;;;;;;5113161;23;20411;-80
2022/04/13 01:40:56;;;;;;;16.37;7.87;;;8.70;75.00;;;;;;5113723;23;20441;-80
2022/04/13 01:42:57;;;;;;;15.97;7.40;;;8.70;75.60;;;;;;5113870;23;20423;-81
2022/04/13 01:44:59;;;;;;;15.87;7.80;;;8.70;76.60;;;;;;5105311;23;20427;-81
2022/04/13 01:47:01;;;;;;;18.23;8.53;;;8.60;76.80;;;;;;5105543;23;20768;-81
2022/04/13 01:49:03;;;;;;;14.63;7.27;;;8.60;77.60;;;;;;5101911;23;20513;-80
2022/04/13 01:51:05;;;;;;;15.17;7.67;;;8.60;78.30;;;;;;5100398;23;20412;-80
2022/04/13 01:53:07;;;;;;;15.00;7.10;;;8.60;79.70;;;;;;5101709;23;20403;-81
2022/04/13 01:55:11;;;;;;;18.13;7.90;;;8.50;80.20;;;;;;5101874;23;20539;-81
2022/04/13 01:57:12;;;;;;;17.53;7.60;;;8.50;79.80;;;;;;5101332;23;20449;-81
2022/04/13 01:59:14;;;;;;;19.20;8.50;;;8.50;80.30;;;;;;5099891;23;20498;-81
2022/04/13 02:01:17;;;;;;;14.33;7.30;;;8.50;81.10;;;;;;5101391;23;20415;-81
2022/04/13 02:03:19;;;;;;;17.50;7.27;;;8.50;81.00;;;;;;5093064;23;20438;-80
2022/04/13 02:05:21;;;;;;;17.80;7.67;;;8.50;82.00;;;;;;5092906;23;20879;-79
2022/04/13 02:07:23;;;;;;;18.10;8.23;;;8.50;82.20;;;;;;5091529;23;20447;-78
2022/04/13 02:09:26;;;;;;;18.10;7.80;;;8.20;82.20;;;;;;5092115;23;20458;-79
2022/04/13 02:11:29;;;;;;;16.80;7.30;;;8.40;82.80;;;;;;5092680;23;20462;-79
2022/04/13 02:13:31;;;;;;;17.93;7.20;;;8.40;84.30;;;;;;5090931;23;20434;-79
2022/04/13 02:15:33;;;;;;;14.83;7.60;;;8.30;84.30;;;;;;5092804;23;20418;-81
2022/04/13 02:17:36;;;;;;;20.50;8.70;;;8.40;84.50;;;;;;5091789;23;20476;-81
2022/04/13 02:19:38;;;;;;;14.73;7.33;;;8.40;84.40;;;;;;5091350;23;20426;-79
2022/04/13 02:21:40;;;;;;;17.70;7.90;;;8.30;84.30;;;;;;5092359;23;20446;-80
2022/04/13 02:23:42;;;;;;;14.97;7.90;;;8.20;84.90;;;;;;5089921;23;20458;-80
2022/04/13 02:25:44;;;;;;;15.97;8.00;;;9.00;86.50;;;;;;5092027;23;20461;-80
2022/04/13 02:27:47;;;;;;;16.03;7.37;;;8.30;86.30;;;;;;5091735;23;20419;-79
2022/04/13 02:29:51;;;;;;;17.70;8.13;;;9.10;88.10;;;;;;5092528;23;20450;-79
2022/04/13 02:31:56;;;;;;;13.93;7.53;;;8.30;88.70;;;;;;5092008;23;20435;-79
2022/04/13 02:33:58;;;;;;;16.27;7.70;;;8.20;89.00;;;;;;5091812;23;20422;-80
2022/04/13 02:36:01;;;;;;;16.37;7.60;;;8.20;88.30;;;;;;5092368;23;20909;-80
2022/04/13 02:38:05;;;;;;;15.07;7.60;;;8.50;89.40;;;;;;5090852;23;20453;-79
2022/04/13 02:40:08;;;;;;;16.07;7.40;;;8.30;89.80;;;;;;5089925;23;20415;-79
2022/04/13 02:42:12;;;;;;;14.87;7.27;;;8.10;90.10;;;;;;5092007;23;20929;-80
2022/04/13 02:44:18;;;;;;;21.77;7.70;;;8.10;90.50;;;;;;5093376;23;20502;-81
2022/04/13 02:46:19;;;;;;;17.50;7.80;;;8.10;90.50;;;;;;5093761;23;20406;-79
2022/04/13 02:48:21;;;;;;;15.77;7.50;;;8.10;90.80;;;;;;5091643;23;20451;-79
2022/04/13 02:50:24;;;;;;;13.73;6.73;;;8.10;91.20;;;;;;5093308;23;20430;-79
2022/04/13 02:52:28;;;;;;;14.47;7.30;;;8.10;91.70;;;;;;5093842;23;20442;-81
2022/04/13 02:54:29;;;;;;;17.87;7.63;;;8.00;91.60;;;;;;5093881;23;20414;-79
2022/04/13 02:56:31;;;;;;;17.43;8.00;;;7.80;91.50;;;;;;5093165;23;20417;-79
2022/04/13 02:58:33;;;;;;;17.13;7.43;;;8.00;91.60;;;;;;5093273;23;20414;-79
2022/04/13 03:00:36;;;;;;;14.10;7.27;;;8.00;91.90;;;;;;5096017;23;20440;-80
2022/04/13 03:02:40;;;;;;;15.90;7.53;;;7.90;92.70;;;;;;5098638;23;20454;-79
2022/04/13 03:04:43;;;;;;;16.53;7.63;;;7.90;93.70;;;;;;5101484;23;20407;-80
2022/04/13 03:06:45;;;;;;;15.87;7.87;;;7.90;93.90;;;;;;5100031;23;20449;-79
2022/04/13 03:08:47;;;;;;;16.47;7.87;;;8.40;94.10;;;;;;5100249;23;20431;-80
2022/04/13 03:10:49;;;;;;;14.73;7.70;;;7.80;94.00;;;;;;5101917;23;20418;-81
2022/04/13 03:12:50;;;;;;;17.43;7.83;;;7.80;94.20;;;;;;5099949;23;20505;-81
2022/04/13 03:14:52;;;;;;;16.83;7.67;;;7.90;94.30;;;;;;5096445;23;20902;-79
2022/04/13 03:16:55;;;;;;;16.37;7.43;;;7.90;94.30;;;;;;5093627;23;21141;-79
2022/04/13 03:18:57;;;;;;;15.70;7.67;;;8.20;94.20;;;;;;5093827;23;20422;-80
2022/04/13 03:20:59;;;;;;;17.97;8.40;;;8.30;94.60;;;;;;5093937;23;20788;-80
2022/04/13 03:23:00;;;;;;;17.83;7.90;;;7.80;94.60;;;;;;5095287;23;20442;-79
2022/04/13 03:25:04;;;;;;;13.80;7.07;;;7.80;94.40;;;;;;5096459;23;20454;-79
2022/04/13 03:27:05;;;;;;;19.00;7.77;;;7.80;95.00;;;;;;5101102;23;20421;-80
2022/04/13 03:29:07;;;;;;;14.83;7.40;;;7.80;95.10;;;;;;5103251;23;20458;-80
2022/04/13 03:31:09;;;;;;;15.67;7.63;;;7.70;95.30;;;;;;5104291;23;20930;-81
2022/04/13 03:33:12;;;;;;;14.97;7.50;;;7.80;95.40;;;;;;5098958;23;20419;-79
2022/04/13 03:35:14;;;;;;;19.03;7.93;;;7.70;95.80;;;;;;5098491;23;20426;-80
2022/04/13 03:37:15;;;;;;;16.23;8.30;;;8.40;95.90;;;;;;5095738;23;20449;-80
2022/04/13 03:39:17;;;;;;;17.97;7.43;;;7.70;95.70;;;;;;5094839;23;20406;-81
2022/04/13 03:41:19;;;;;;;13.63;7.17;;;7.70;96.10;;;;;;5100165;23;20402;-80
2022/04/13 03:43:21;;;;;;;15.40;7.37;;;7.60;96.90;;;;;;5096569;23;20423;-80
2022/04/13 03:45:23;;;;;;;15.50;6.87;;;7.60;96.30;;;;;;5100859;23;20419;-79
2022/04/13 03:47:24;;;;;;;13.80;7.43;;;7.60;96.10;;;;;;5101937;23;20403;-80
2022/04/13 03:49:29;;;;;;;15.70;7.57;;;7.70;96.50;;;;;;5100333;23;20453;-80
2022/04/13 03:51:30;;;;;;;16.70;7.13;;;8.20;97.00;;;;;;5102366;23;20443;-80
2022/04/13 03:53:32;;;;;;;17.27;7.77;;;7.60;96.90;;;;;;5101614;23;20396;-79
2022/04/13 03:55:34;;;;;;;18.30;8.07;;;7.70;97.50;;;;;;5094700;23;20423;-80
2022/04/13 03:57:36;;;;;;;16.77;7.37;;;7.50;98.00;;;;;;5094477;23;20423;-80
2022/04/13 03:59:38;;;;;;;17.73;7.00;;;7.50;97.80;;;;;;5093606;23;20427;-79
2022/04/13 04:01:40;;;;;;;18.17;7.47;;;7.50;97.40;;;;;;5093210;23;20941;-79
2022/04/13 04:03:42;;;;;;;18.27;7.70;;;7.50;98.00;;;;;;5093680;23;20452;-79
2022/04/13 04:05:45;;;;;;;16.20;7.87;;;8.30;98.40;;;;;;5093509;23;20797;-80
2022/04/13 04:07:48;;;;;;;15.00;7.47;;;7.50;98.50;;;;;;5092937;23;20469;-79
2022/04/13 04:09:50;;;;;;;14.00;7.80;;;7.50;98.90;;;;;;5094008;23;20461;-79
2022/04/13 04:11:52;;;;;;;12.60;7.03;;;7.50;98.50;;;;;;5093294;23;20448;-79
2022/04/13 04:13:54;;;;;;;17.00;7.63;;;7.60;98.80;;;;;;5093199;23;20423;-79
2022/04/13 04:15:55;;;;;;;14.50;7.03;;;7.40;99.20;;;;;;5094382;23;20421;-79
2022/04/13 04:17:57;;;;;;;16.13;8.00;;;7.40;99.60;;;;;;5094008;23;20422;-80
2022/04/13 04:19:59;;;;;;;16.67;7.70;;;7.40;99.10;;;;;;5094584;23;20465;-79
2022/04/13 04:22:02;;;;;;;20.20;8.03;;;8.10;99.30;;;;;;5094114;23;20492;-79
2022/04/13 04:24:05;;;;;;;15.27;7.20;;;7.80;99.20;;;;;;5093750;23;20472;-79
2022/04/13 04:26:06;;;;;;;15.47;6.73;;;7.40;99.30;;;;;;5092860;23;20492;-80
2022/04/13 04:28:10;;;;;;;16.27;7.00;;;7.40;99.50;;;;;;5092552;23;20421;-79
2022/04/13 04:30:12;;;;;;;14.03;7.17;;;7.40;99.80;;;;;;5093423;23;20461;-79
2022/04/13 04:32:13;;;;;;;13.13;6.37;;;7.40;99.90;;;;;;5093539;23;20439;-79
2022/04/13 04:34:15;;;;;;;18.57;7.57;;;7.40;99.90;;;;;;5093583;23;20450;-81
2022/04/13 04:36:17;;;;;;;13.53;6.80;;;7.40;99.70;;;;;;5094188;23;20506;-81
2022/04/13 04:38:20;;;;;;;14.93;7.20;;;7.40;99.50;;;;;;5093001;23;20422;-83
2022/04/13 04:40:22;;;;;;;19.87;9.10;;;7.40;99.50;;;;;;5093660;23;20423;-80
2022/04/13 04:42:24;;;;;;;19.63;9.47;;;7.40;99.80;;;;;;5094202;23;20445;-79
2022/04/13 04:44:25;;;;;;;17.83;8.47;;;7.40;99.90;;;;;;5094186;23;20421;-80
2022/04/13 04:46:27;;;;;;;23.10;8.30;;;7.40;99.90;;;;;;5094209;23;20418;-80
2022/04/13 04:48:29;;;;;;;13.73;7.20;;;7.50;99.90;;;;;;5092710;23;20423;-79
2022/04/13 04:50:32;;;;;;;17.83;7.53;;;7.40;99.90;;;;;;5092973;23;20449;-79
2022/04/13 04:52:34;;;;;;;17.00;8.03;;;7.40;99.80;;;;;;5092311;23;20461;-80
2022/04/13 04:54:37;;;;;;;15.17;7.10;;;7.40;99.70;;;;;;5092622;23;20452;-80
2022/04/13 04:56:38;;;;;;;17.40;7.77;;;7.40;99.70;;;;;;5093405;23;20480;-79
2022/04/13 04:58:40;;;;;;;15.70;8.07;;;7.50;99.60;;;;;;5093941;23;20463;-79
2022/04/13 05:00:42;;;;;;;16.77;7.70;;;7.40;99.80;;;;;;5094058;23;20418;-81
2022/04/13 05:02:44;;;;;;;19.77;8.30;;;7.40;99.80;;;;;;5095128;23;20508;-81
2022/04/13 05:04:45;;;;;;;18.73;8.40;;;7.40;99.60;;;;;;5094102;23;20424;-79
2022/04/13 05:06:47;;;;;;;17.83;8.53;;;7.40;99.10;;;;;;5093805;23;20426;-81
2022/04/13 05:08:51;;;;;;;15.37;7.33;;;7.70;99.20;;;;;;5093540;23;20454;-78
2022/04/13 05:10:54;;;;;;;18.67;7.70;;;7.50;99.00;;;;;;5093259;23;20457;-81
2022/04/13 05:12:57;;;;;;;17.33;7.50;;;7.50;98.70;;;;;;5093711;23;20958;-79
2022/04/13 05:15:02;;;;;;;16.40;7.27;;;7.50;98.50;;;;;;5093606;23;20421;-80
2022/04/13 05:17:04;;;;;;;15.17;7.10;;;7.60;98.50;;;;;;5093405;23;20406;-81
2022/04/13 05:19:08;;;;;;;14.67;7.17;;;7.60;98.50;;;;;;5093877;23;20419;-81
2022/04/13 05:21:10;;;;;;;17.07;7.40;;;7.60;98.90;;;;;;5093722;23;20921;-81
2022/04/13 05:23:12;;;;;;;17.00;6.80;;;7.60;98.80;;;;;;5092925;23;20739;-80
2022/04/13 05:25:15;;;;;;;17.93;7.57;;;7.70;98.90;;;;;;5092736;23;20505;-79
2022/04/13 05:27:18;;;;;;;17.20;6.57;;;7.70;98.10;;;;;;5093253;23;20407;-80
2022/04/13 05:29:21;;;;;;;15.20;7.70;;;8.20;97.90;;;;;;5094050;23;20466;-79
2022/04/13 05:31:24;;;;;;;16.23;6.67;;;8.00;97.80;;;;;;5093156;23;20456;-80
2022/04/13 05:33:26;;;;;;;16.73;7.50;;;7.80;97.20;;;;;;5093436;23;20489;-79
2022/04/13 05:35:31;;;;;;;14.20;7.77;;;7.80;97.40;;;;;;5092719;23;20423;-79
2022/04/13 05:37:34;;;;;;;17.50;7.60;;;7.90;97.40;;;;;;5093922;23;20413;-80
2022/04/13 05:39:38;;;;;;;14.73;7.47;;;7.90;97.30;;;;;;5091952;23;20426;-79
2022/04/13 05:41:41;;;;;;;14.93;7.27;;;7.90;97.30;;;;;;5093530;23;20937;-80
2022/04/13 05:43:44;;;;;;;17.27;7.20;;;8.00;97.20;;;;;;5093975;23;20504;-79
2022/04/13 05:45:46;;;;;;;14.37;7.10;;;8.10;96.50;;;;;;5094272;23;20422;-79
2022/04/13 05:47:47;;;;;;;15.00;6.27;;;8.10;96.60;;;;;;5094113;23;20418;-80
2022/04/13 05:49:49;;;;;;;16.47;7.50;;;8.20;96.00;;;;;;5093047;23;20427;-80
2022/04/13 05:51:51;;;;;;;13.17;6.53;;;8.20;95.90;;;;;;5097111;23;20441;-80
2022/04/13 05:53:53;;;;;;;13.80;6.87;;;8.30;95.70;;;;;;5099133;23;20422;-80
2022/04/13 05:55:56;;;;;;;20.97;7.13;;;8.90;95.70;;;;;;5100045;23;20411;-79
2022/04/13 05:57:58;;;;;;;17.30;6.97;;;8.40;95.10;;;;;;5100168;23;20460;-79
2022/04/13 06:00:01;;;;;;;16.13;6.90;;;8.70;94.40;;;;;;5099218;23;20429;-80
2022/04/13 06:02:04;;;;;;;15.97;6.97;;;8.40;94.20;;;;;;5097736;23;20427;-80
2022/04/13 06:04:06;;;;;;;14.33;6.13;;;8.50;93.80;;;;;;5095159;23;20400;-81
2022/04/13 06:06:07;;;;;;;14.53;6.33;;;8.60;93.50;;;;;;5094683;23;20473;-79
2022/04/13 06:08:11;;;;;;;14.33;6.47;;;8.60;93.30;;;;;;5093918;23;20474;-79
2022/04/13 06:10:15;;;;;;;17.10;6.90;;;8.70;93.50;;;;;;5092979;23;20454;-79
2022/04/13 06:12:23;;;;;;;18.03;7.37;;;8.70;93.50;;;;;;5094270;23;20443;-79
2022/04/13 06:14:25;;;;;;;14.20;7.00;;;8.80;93.30;;;;;;5093946;23;20933;-79
2022/04/13 06:16:28;;;;;;;13.13;6.87;;;8.80;93.40;;;;;;5094237;23;20481;-80
2022/04/13 06:18:30;;;;;;;13.10;6.63;;;8.90;92.80;;;;;;5095148;23;20443;-79
2022/04/13 06:20:31;;;;;;;13.80;7.10;;;9.00;92.70;;;;;;5095506;23;20784;-80
2022/04/13 06:22:34;;;;;;;16.60;6.50;;;9.00;93.10;;;;;;5095793;23;20435;-80
2022/04/13 06:24:35;;;;;;;18.63;6.93;;;9.60;92.50;;;;;;5095355;23;20478;-80
2022/04/13 06:26:37;;;;;;;12.50;6.33;;;9.20;90.90;;;;;;5094955;23;20450;-80
2022/04/13 06:28:40;;;;;;;14.00;6.23;;;9.20;89.20;;;;;;5096120;23;20416;-79
2022/04/13 06:30:43;;;;;;;15.37;6.23;;;9.30;86.30;;;;;;5094843;23;20206;-79
2022/04/13 06:32:47;;;;;;;13.43;6.40;;;9.40;84.60;;;;;;5094608;23;20664;-79
2022/04/13 06:34:51;;;;;;;13.57;6.60;;;9.50;83.60;;;;;;5095091;23;20415;-81
2022/04/13 06:36:53;;;;;;;16.43;5.93;;;9.50;83.60;;;;;;5094030;23;20184;-80
2022/04/13 06:38:55;;;;;;;17.23;6.80;;;9.70;81.80;;;;;;5095830;23;20188;-81
2022/04/13 06:40:57;;;;;;;12.37;6.10;;;9.80;81.80;;;;;;5096559;23;20418;-80
2022/04/13 06:42:59;;;;;;;11.97;5.90;;;9.70;79.90;;;;;;5095867;23;20208;-81
2022/04/13 06:45:01;;;;;;;14.10;5.60;;;9.80;75.90;;;;;;5095760;23;20661;-79
2022/04/13 06:47:03;;;;;;;12.33;5.37;;;9.90;71.10;;;;;;5097163;23;20215;-79
2022/04/13 06:49:06;;;;;;;10.90;5.90;;;10.00;68.00;;;;;;5096496;23;20188;-79
2022/04/13 06:51:08;;;;;;;15.33;5.73;;;10.20;66.10;;;;;;5096721;23;20188;-79
2022/04/13 06:53:09;;;;;;;12.43;5.60;;;10.30;63.50;;;;;;5098360;23;20177;-80
2022/04/13 06:55:12;;;;;;;11.03;5.33;;;10.40;60.50;;;;;;5098979;23;20565;-80
2022/04/13 06:57:13;;;;;;;12.97;5.70;;;10.50;60.80;;;;;;5099158;23;20216;-81
2022/04/13 06:59:15;;;;;;;10.67;4.83;;;10.60;59.50;;;;;;5099323;23;20180;-81
2022/04/13 07:01:17;;;;;;;10.17;4.67;;;10.70;57.80;;;;;;5102089;23;20374;-80
2022/04/13 07:03:19;;;;;;;12.23;4.93;;;10.80;57.40;;;;;;5102130;23;20189;-81
2022/04/13 07:05:22;;;;;;;11.83;5.60;;;11.00;57.10;;;;;;5104028;23;20216;-80
2022/04/13 07:07:24;;;;;;;9.97;4.67;;;10.90;56.60;;;;;;5104179;23;20188;-82
2022/04/13 07:09:25;;;;;;;9.23;4.53;;;11.10;56.70;;;;;;5102881;23;20201;-81
2022/04/13 07:11:27;;;;;;;10.00;4.80;;;11.10;56.30;;;;;;5101250;23;20530;-79
2022/04/13 07:13:29;;;;;;;9.70;5.07;;;11.10;56.20;;;;;;5098009;23;20186;-80
2022/04/13 07:15:31;;;;;;;10.23;4.73;;;11.20;56.30;;;;;;5098310;23;20198;-80
2022/04/13 07:17:33;;;;;;;11.77;4.80;;;11.30;56.10;;;;;;5099306;23;20240;-80
2022/04/13 07:19:35;;;;;;;7.43;4.27;;;11.40;55.30;;;;;;5098421;23;20190;-79
2022/04/13 07:21:38;;;;;;;11.10;4.70;;;11.50;54.90;;;;;;5098908;23;20234;-80
2022/04/13 07:23:40;;;;;;;12.20;4.60;;;11.60;53.90;;;;;;5097826;23;20845;-81
2022/04/13 07:25:42;;;;;;;9.20;4.10;;;11.70;53.10;;;;;;5098088;23;20261;-79
2022/04/13 07:27:44;;;;;;;9.33;4.63;;;11.70;52.70;;;;;;5098101;23;20783;-80
2022/04/13 07:29:46;;;;;;;12.93;4.93;;;11.80;52.70;;;;;;5098969;23;20193;-79
2022/04/13 07:31:47;;;;;;;9.87;4.87;;;11.90;53.00;;;;;;5098194;23;20289;-79
2022/04/13 07:33:49;;;;;;;10.27;4.87;;;11.90;53.00;;;;;;5098954;23;20190;-80
2022/04/13 07:35:51;;;;;;;11.20;4.40;;;12.00;51.90;;;;;;5099584;23;20262;-80
2022/04/13 07:37:54;;;;;;;11.07;4.30;;;12.20;51.00;;;;;;5098425;23;20214;-80
2022/04/13 07:39:56;;;;;;;11.53;4.70;;;12.20;51.10;;;;;;5100075;23;20186;-81
2022/04/13 07:41:58;;;;;;;11.93;5.20;;;12.30;51.00;;;;;;5100319;23;20291;-79
2022/04/13 07:44:00;;;;;;;8.40;4.13;;;12.30;50.80;;;;;;5099320;23;20197;-79
2022/04/13 07:46:02;;;;;;;10.00;4.43;;;13.10;51.10;;;;;;5099943;23;20226;-80
2022/04/13 07:48:05;;;;;;;10.50;4.50;;;12.50;51.10;;;;;;5098932;23;20182;-80
2022/04/13 07:50:11;;;;;;;9.20;4.50;;;12.50;50.60;;;;;;5097268;23;20198;-80
2022/04/13 07:52:13;;;;;;;9.13;4.40;;;12.60;49.70;;;;;;5099936;23;20207;-81
2022/04/13 07:54:16;;;;;;;10.20;4.63;;;12.70;49.30;;;;;;5100132;23;20246;-80
2022/04/13 07:56:18;;;;;;;10.70;4.53;;;12.70;49.00;;;;;;5099496;23;20245;-82
2022/04/13 07:58:19;;;;;;;11.37;4.60;;;12.80;48.40;;;;;;5099093;23;20183;-80
2022/04/13 08:00:21;;;;;;;13.93;4.50;;;12.90;48.30;;;;;;5099177;23;20198;-80
2022/04/13 08:02:23;;;;;;;10.63;4.07;;;13.00;47.90;;;;;;5114162;23;20210;-83
2022/04/13 08:04:25;;;;;;;10.63;4.43;;;13.00;47.60;;;;;;5144011;23;20201;-83
2022/04/13 08:06:28;;;;;;;6.77;3.77;;;13.00;47.50;;;;;;5144878;23;20457;-84
2022/04/13 08:08:30;;;;;;;7.90;3.70;;;13.10;47.40;;;;;;5144580;23;20663;-84
2022/04/13 08:10:33;;;;;;;8.83;4.00;;;13.20;47.80;;;;;;5144317;23;20213;-85
2022/04/13 08:12:35;;;;;;;8.43;3.87;;;13.20;47.80;;;;;;5145736;23;20213;-86
2022/04/13 08:14:37;;;;;;;8.80;4.10;;;13.30;47.40;;;;;;5144046;23;20621;-84
2022/04/13 08:16:39;;;;;;;7.93;3.93;;;13.40;47.40;;;;;;5143457;23;20192;-84
2022/04/13 08:18:40;;;;;;;11.97;4.07;;;13.40;46.90;;;;;;5144996;23;20187;-85
2022/04/13 08:20:43;;;;;;;7.07;3.90;;;13.50;46.80;;;;;;5146287;23;20637;-84
2022/04/13 08:22:47;;;;;;;8.27;3.80;;;13.60;47.70;;;;;;5145125;23;20236;-84
2022/04/13 08:24:49;;;;;;;7.53;3.67;;;13.60;47.60;;;;;;5147137;23;20216;-84
2022/04/13 08:26:52;;;;;;;9.50;4.20;;;13.70;47.40;;;;;;5149583;23;20186;-84
2022/04/13 08:28:54;;;;;;;7.80;3.80;;;13.90;47.10;;;;;;5153382;23;20227;-83
2022/04/13 08:30:55;;;;;;;13.67;4.37;;;13.90;46.40;;;;;;5149265;23;20563;-85
2022/04/13 08:32:57;;;;;;;10.83;3.60;;;14.00;46.10;;;;;;5150753;23;20265;-85
2022/04/13 08:34:59;;;;;;;7.10;3.53;;;14.00;45.70;;;;;;5144767;23;20523;-84
2022/04/13 08:37:01;;;;;;;7.63;4.13;;;14.10;45.10;;;;;;5143063;23;20249;-85
2022/04/13 08:39:03;;;;;;;7.90;3.50;;;14.20;44.60;;;;;;5143914;23;20179;-85
2022/04/13 08:41:14;;;;;;;6.43;3.40;;;14.40;44.60;;;;;;5143482;23;20504;-86
2022/04/13 08:43:22;;;;;;;9.20;3.23;;;14.50;44.90;;;;;;5147424;23;20199;-84
2022/04/13 08:45:26;;;;;;;9.33;3.63;;;14.50;44.60;;;;;;5148371;23;20180;-84
2022/04/13 08:47:28;;;;;;;5.83;3.00;;;14.80;44.10;;;;;;5149230;23;20265;-85
2022/04/13 08:49:34;;;;;;;6.90;3.60;;;14.80;43.90;;;;;;5147362;23;20570;-83
2022/04/13 08:51:39;;;;;;;9.83;3.53;;;14.90;43.40;;;;;;5146942;23;20219;-83
2022/04/13 08:53:44;;;;;;;9.00;4.00;;;15.00;43.50;;;;;;5149489;23;20596;-85
2022/04/13 08:55:53;;;;;;;9.73;4.10;;;15.30;43.90;;;;;;5154841;23;20187;-85
2022/04/13 08:58:01;;;;;;;10.27;3.60;;;15.30;43.20;;;;;;5155107;23;20636;-84
2022/04/13 09:00:10;;;;;;;9.90;3.60;;;15.40;43.40;;;;;;5156711;23;20187;-85
2022/04/13 09:02:21;;;;;;;9.80;3.97;;;15.50;43.90;;;;;;5152237;23;20580;-82
2022/04/13 09:04:28;;;;;;;13.17;4.07;;;15.50;43.70;;;;;;5151452;23;20187;-82
2022/04/13 09:06:31;;;;;;;11.07;4.17;;;15.70;44.10;;;;;;5148681;23;20267;-84
2022/04/13 09:08:40;;;;;;;8.53;4.17;;;15.90;44.00;;;;;;5145833;23;20187;-84
2022/04/13 09:10:42;;;;;;;6.93;3.77;;;15.90;43.70;;;;;;5145354;23;20173;-85
2022/04/13 09:12:45;;;;;;;12.93;4.03;;;15.90;44.10;;;;;;5144386;23;20211;-84
2022/04/13 09:14:47;;;;;;;15.77;4.77;;;16.00;44.30;;;;;;5141771;23;20496;-84
2022/04/13 09:16:51;;;;;;;9.00;4.23;;;16.20;43.70;;;;;;5144274;23;20182;-82
2022/04/13 09:18:54;;;;;;;11.17;4.13;;;16.40;43.30;;;;;;5143605;23;20206;-84
2022/04/13 09:20:56;;;;;;;9.67;3.80;;;16.40;42.90;;;;;;5143364;23;20188;-83
2022/04/13 09:23:00;;;;;;;6.57;3.50;;;16.50;43.10;;;;;;5144589;23;20666;-84
2022/04/13 09:25:08;;;;;;;7.90;3.80;;;16.60;42.60;;;;;;5143094;23;20189;-83
2022/04/13 09:27:10;;;;;;;10.43;4.03;;;16.80;42.20;;;;;;5145735;23;20201;-82
2022/04/13 09:29:12;;;;;;;8.67;3.63;;;16.90;42.50;;;;;;5146169;23;20178;-83
2022/04/13 09:31:14;;;;;;;10.30;3.83;;;17.00;42.10;;;;;;5145287;23;20191;-83
2022/04/13 09:33:17;;;;;;;6.67;3.43;;;17.10;41.90;;;;;;5145762;23;20530;-82
2022/04/13 09:35:19;;;;;;;10.20;3.73;;;17.20;41.90;;;;;;5145707;23;20555;-83
2022/04/13 09:37:22;;;;;;;9.20;3.97;;;17.30;41.90;;;;;;5145011;23;20523;-83
2022/04/13 09:39:24;;;;;;;8.47;3.63;;;17.50;42.00;;;;;;5144636;23;20638;-83
2022/04/13 09:41:33;;;;;;;8.87;3.50;;;17.50;41.80;;;;;;5145448;23;20555;-83
2022/04/13 09:43:35;;;;;;;8.43;3.60;;;17.80;41.30;;;;;;5145744;23;20626;-83
2022/04/13 09:45:39;;;;;;;9.23;4.00;;;17.80;41.00;;;;;;5144451;23;20183;-83
2022/04/13 09:47:47;;;;;;;7.97;3.93;;;17.90;41.00;;;;;;5144620;23;20193;-84
2022/04/13 09:49:53;;;;;;;8.97;3.83;;;18.00;40.40;;;;;;5145944;23;20176;-84
2022/04/13 09:51:55;;;;;;;5.87;3.27;;;18.10;40.30;;;;;;5147151;23;20200;-82
2022/04/13 09:53:56;;;;;;;5.63;3.60;;;18.20;40.70;;;;;;5148504;23;20179;-83
2022/04/13 09:56:00;;;;;;;6.57;3.27;;;18.40;40.20;;;;;;5147617;23;20268;-83
2022/04/13 09:58:10;;;;;;;8.03;3.30;;;18.50;40.20;;;;;;5146827;23;20638;-83
2022/04/13 10:00:12;;;;;;;9.50;3.40;;;18.60;40.20;;;;;;5147794;23;20201;-84
2022/04/13 10:02:14;;;;;;;7.60;3.60;;;18.70;39.20;;;;;;5147517;23;20217;-82
2022/04/13 10:04:24;;;;;;;7.67;3.70;;;18.90;38.90;;;;;;5148462;23;20200;-83
2022/04/13 10:06:33;;;;;;;6.60;3.57;;;18.90;39.00;;;;;;5151270;23;20695;-84
2022/04/13 10:08:35;;;;;;;8.50;4.03;;;19.10;38.50;;;;;;5153562;23;20189;-83
2022/04/13 10:10:42;;;;;;;13.70;3.83;;;19.20;38.50;;;;;;5155699;23;20189;-82
2022/04/13 10:12:51;;;;;;;15.97;5.10;;;19.40;38.80;;;;;;5157899;23;20205;-83
2022/04/13 10:14:53;;;;;;;6.97;3.63;;;19.40;37.90;;;;;;5157030;23;20852;-83
2022/04/13 10:25:46;;;;;;;9.83;3.90;;;19.90;37.10;;;;;;4914464;23;20215;-83
2022/04/13 10:27:54;;;;;;;10.70;3.93;;;20.00;36.90;;;;;;5136658;23;20191;-84
2022/04/13 10:30:07;;;;;;;9.07;4.00;;;20.20;36.70;;;;;;5152668;23;20166;-83
2022/04/13 10:32:10;;;;;;;9.47;4.20;;;20.20;37.20;;;;;;5147496;23;20202;-83
2022/04/13 10:34:13;;;;;;;9.13;3.60;;;20.40;36.10;;;;;;5148182;23;20704;-84
2022/04/13 10:36:17;;;;;;;6.83;3.50;;;20.50;35.60;;;;;;5148813;23;20622;-83
2022/04/13 10:38:19;;;;;;;5.33;3.00;;;20.50;35.20;;;;;;5148511;23;20569;-84
2022/04/13 10:40:22;;;;;;;6.57;2.80;;;20.70;35.70;;;;;;5148537;23;20193;-83
2022/04/13 10:42:31;;;;;;;9.37;2.73;;;20.80;35.20;;;;;;5148774;23;20253;-83
2022/04/13 10:44:36;;;;;;;6.20;2.90;;;20.90;34.90;;;;;;5147362;23;20186;-83
2022/04/13 10:46:39;;;;;;;5.50;3.00;;;21.00;34.50;;;;;;5148642;23;20175;-83